Time;durP1;ratioP1;P1;durP2;ratioP2;P2;SDS_P1;SDS_P2;PMS_P1;PMS_P2;Temp;Humidity;BMP_temperature;BMP_pressure;BME280_temperature;BME280_humidity;BME280_pressure;Samples;Min_cycle;Max_cycle;Signal;HPM_P1;HPM_P2
2022/03/18 00:00:07;;;;;;;42.47;10.57;;;5.20;99.90;;;;;;5055761;28;20091;-91
2022/03/18 00:02:32;;;;;;;27.58;8.52;;;5.20;99.90;;;;;;5056053;28;20115;-91
2022/03/18 00:04:58;;;;;;;30.25;8.65;;;5.20;99.90;;;;;;5055029;28;20107;-91
2022/03/18 00:07:52;;;;;;;21.17;8.35;;;5.20;99.90;;;;;;5056080;28;20051;-91
2022/03/18 00:10:24;;;;;;;23.80;8.90;;;5.30;99.90;;;;;;5044485;28;20052;-91
2022/03/18 00:12:53;;;;;;;29.75;8.98;;;5.20;99.90;;;;;;5054678;28;20029;-92
2022/03/18 00:15:23;;;;;;;31.55;8.30;;;5.20;99.90;;;;;;5055872;28;20021;-92
2022/03/18 00:17:57;;;;;;;26.67;8.70;;;5.20;99.90;;;;;;5056068;28;20028;-91
2022/03/18 00:20:24;;;;;;;22.10;7.90;;;5.20;99.90;;;;;;5054777;28;20106;-92
2022/03/18 00:22:49;;;;;;;20.27;8.23;;;5.10;99.90;;;;;;5054539;28;20482;-91
2022/03/18 00:25:34;;;;;;;24.83;8.48;;;5.10;99.90;;;;;;5054570;28;20029;-92
2022/03/18 00:27:59;;;;;;;25.63;9.02;;;5.00;99.90;;;;;;5056194;28;20028;-91
2022/03/18 00:30:30;;;;;;;25.27;8.45;;;5.00;99.90;;;;;;5054219;28;20025;-91
2022/03/18 00:32:56;;;;;;;23.58;8.32;;;5.00;99.90;;;;;;5055620;28;20202;-91
2022/03/18 00:35:22;;;;;;;30.95;8.63;;;4.90;99.90;;;;;;5054512;28;20075;-92
2022/03/18 00:37:53;;;;;;;29.23;9.40;;;4.90;99.90;;;;;;5054320;28;20424;-91
2022/03/18 00:40:18;;;;;;;27.38;9.23;;;4.90;99.90;;;;;;5063396;28;20115;-91
2022/03/18 00:42:46;;;;;;;17.35;7.65;;;4.80;99.90;;;;;;5075428;28;20108;-91
2022/03/18 00:45:13;;;;;;;22.85;7.70;;;4.70;99.90;;;;;;5090664;28;20021;-91
2022/03/18 00:53:29;;;;;;;27.63;9.32;;;4.50;99.90;;;;;;5075318;28;20434;-92
2022/03/18 00:55:55;;;;;;;25.35;9.18;;;4.50;99.90;;;;;;5091078;28;20028;-91
2022/03/18 00:58:20;;;;;;;26.13;8.63;;;4.40;99.90;;;;;;5074013;28;20074;-92
2022/03/18 01:00:55;;;;;;;20.95;8.88;;;4.40;99.90;;;;;;5073570;28;20024;-92
2022/03/18 01:03:21;;;;;;;27.08;8.02;;;4.30;99.90;;;;;;5083784;28;20035;-92
2022/03/18 01:05:46;;;;;;;27.50;9.27;;;4.20;99.90;;;;;;5095812;28;20372;-92
2022/03/18 01:08:23;;;;;;;23.85;8.45;;;4.20;99.90;;;;;;5110967;28;20020;-92
2022/03/18 01:10:53;;;;;;;20.67;8.07;;;4.20;99.90;;;;;;5110852;28;20051;-92
2022/03/18 01:13:19;;;;;;;32.30;10.93;;;4.10;99.90;;;;;;5099790;28;20052;-91
2022/03/18 01:16:19;;;;;;;35.00;10.52;;;4.00;99.90;;;;;;5073396;28;20070;-91
2022/03/18 01:18:45;;;;;;;19.70;8.80;;;4.00;99.90;;;;;;5074014;28;20492;-91
2022/03/18 01:21:10;;;;;;;21.75;8.18;;;3.90;99.90;;;;;;5073511;28;20033;-90
2022/03/18 01:23:38;;;;;;;20.80;8.05;;;3.90;99.90;;;;;;5073250;28;20020;-91
2022/03/18 01:26:04;;;;;;;23.15;8.10;;;3.90;99.90;;;;;;5074803;28;20017;-91
2022/03/18 01:28:30;;;;;;;26.95;9.23;;;3.80;99.90;;;;;;5073198;28;20021;-91
2022/03/18 01:31:09;;;;;;;30.77;10.65;;;3.90;99.90;;;;;;5074222;28;20565;-91
2022/03/18 01:33:36;;;;;;;28.23;9.63;;;4.00;99.90;;;;;;5086350;28;20090;-91
2022/03/18 01:36:01;;;;;;;29.25;10.75;;;4.00;99.90;;;;;;5080458;28;20020;-91
2022/03/18 01:38:43;;;;;;;24.65;10.23;;;4.10;99.90;;;;;;5074426;28;20130;-90
2022/03/18 01:41:09;;;;;;;37.20;10.73;;;4.10;99.90;;;;;;5072829;28;20070;-91
2022/03/18 01:43:50;;;;;;;27.45;9.30;;;4.10;99.90;;;;;;5074204;28;20021;-90
2022/03/18 01:46:21;;;;;;;29.52;11.70;;;4.10;99.90;;;;;;5073068;28;20016;-91
2022/03/18 01:48:47;;;;;;;22.65;9.65;;;4.10;99.90;;;;;;5072816;28;20103;-91
2022/03/18 01:51:39;;;;;;;27.92;11.10;;;4.10;99.90;;;;;;5074201;28;20048;-91
2022/03/18 01:56:55;;;;;;;28.27;9.88;;;4.20;99.90;;;;;;5074230;28;20035;-92
2022/03/18 01:59:20;;;;;;;27.00;11.93;;;4.20;99.90;;;;;;5072675;28;20660;-91
2022/03/18 02:01:59;;;;;;;32.55;11.50;;;4.20;99.90;;;;;;5074071;28;20101;-92
2022/03/18 02:04:25;;;;;;;30.90;11.73;;;4.30;99.90;;;;;;5072751;28;20443;-91
2022/03/18 02:06:52;;;;;;;47.03;13.20;;;4.40;99.90;;;;;;5073969;28;20021;-91
2022/03/18 02:09:23;;;;;;;38.65;11.93;;;4.40;99.90;;;;;;5072419;28;20024;-92
2022/03/18 02:11:49;;;;;;;27.80;11.45;;;4.50;99.90;;;;;;5075698;28;20075;-91
2022/03/18 02:14:34;;;;;;;41.97;13.00;;;4.50;99.90;;;;;;5093479;28;20039;-91
2022/03/18 02:17:02;;;;;;;27.77;10.40;;;4.50;99.90;;;;;;5075893;28;20032;-91
2022/03/18 02:20:09;;;;;;;30.05;11.98;;;4.50;99.90;;;;;;5092610;28;20024;-92
2022/03/18 02:22:39;;;;;;;44.90;11.93;;;4.50;99.90;;;;;;5090214;28;20040;-92
2022/03/18 02:25:09;;;;;;;36.10;11.82;;;4.50;99.90;;;;;;5075588;28;20031;-91
2022/03/18 02:30:57;;;;;;;50.15;12.63;;;4.50;99.90;;;;;;5093399;28;20073;-91
2022/03/18 02:33:32;;;;;;;28.50;11.98;;;4.50;99.90;;;;;;5075318;28;20020;-91
2022/03/18 02:35:57;;;;;;;32.88;10.73;;;4.40;99.90;;;;;;5075484;28;20020;-92
2022/03/18 02:38:24;;;;;;;32.17;11.23;;;4.40;99.90;;;;;;5092288;28;20814;-91
2022/03/18 02:40:49;;;;;;;49.83;14.15;;;4.40;99.90;;;;;;5075299;28;20035;-90
2022/03/18 02:43:16;;;;;;;34.28;12.07;;;4.40;99.90;;;;;;5080448;28;20638;-90
2022/03/18 02:45:42;;;;;;;43.40;12.82;;;4.40;99.90;;;;;;5075042;28;20020;-91
2022/03/18 02:48:07;;;;;;;51.03;13.05;;;4.40;99.90;;;;;;5091828;28;20035;-91
2022/03/18 02:50:37;;;;;;;41.15;12.75;;;4.40;99.90;;;;;;5093368;28;20082;-90
2022/03/18 02:53:03;;;;;;;39.33;10.90;;;4.30;99.90;;;;;;5075188;28;20556;-91
2022/03/18 02:55:29;;;;;;;26.35;11.00;;;4.30;99.90;;;;;;5075188;28;20058;-92
2022/03/18 02:57:54;;;;;;;37.08;12.40;;;4.30;99.90;;;;;;5093465;28;20028;-92
2022/03/18 03:00:25;;;;;;;38.35;11.73;;;4.20;99.90;;;;;;5075135;28;20016;-92
2022/03/18 03:02:51;;;;;;;32.92;11.77;;;4.20;99.90;;;;;;5075260;28;20027;-91
2022/03/18 03:08:27;;;;;;;51.83;12.68;;;4.20;99.90;;;;;;5093448;28;20125;-91
2022/03/18 03:10:53;;;;;;;36.03;12.38;;;4.10;99.90;;;;;;5088008;28;20548;-91
2022/03/18 03:13:33;;;;;;;44.22;12.60;;;4.10;99.90;;;;;;5071711;28;20082;-91
2022/03/18 03:16:05;;;;;;;39.70;12.45;;;4.10;99.90;;;;;;5071146;28;20028;-91
2022/03/18 03:18:30;;;;;;;32.08;12.20;;;4.10;99.90;;;;;;5088460;28;20035;-91
2022/03/18 03:21:09;;;;;;;33.60;12.43;;;4.10;99.90;;;;;;5072709;28;20024;-91
2022/03/18 03:23:36;;;;;;;38.85;13.63;;;4.10;99.90;;;;;;5071346;28;20025;-91
2022/03/18 03:26:02;;;;;;;41.03;13.10;;;4.10;99.90;;;;;;5071033;28;20488;-90
2022/03/18 03:28:51;;;;;;;36.40;12.50;;;4.10;99.90;;;;;;5072372;28;20027;-91
2022/03/18 03:31:16;;;;;;;57.15;14.75;;;4.10;99.90;;;;;;5088331;28;20034;-91
2022/03/18 03:33:53;;;;;;;48.40;13.35;;;4.10;99.90;;;;;;5072564;28;20025;-91
2022/03/18 03:36:19;;;;;;;29.95;13.13;;;4.10;99.90;;;;;;5072543;28;20028;-90
2022/03/18 03:38:59;;;;;;;37.88;14.93;;;4.10;99.90;;;;;;5072616;28;20090;-90
2022/03/18 03:41:24;;;;;;;36.22;15.20;;;4.10;99.90;;;;;;5071379;28;20052;-90
2022/03/18 03:44:04;;;;;;;55.10;13.35;;;4.10;99.90;;;;;;5087929;28;20027;-91
2022/03/18 03:46:33;;;;;;;59.55;16.02;;;4.10;99.90;;;;;;5072423;28;20388;-91
2022/03/18 03:48:58;;;;;;;33.60;12.75;;;4.10;99.90;;;;;;5071265;28;20025;-91
2022/03/18 03:51:26;;;;;;;37.70;13.65;;;4.00;99.90;;;;;;5071446;28;20029;-91
2022/03/18 03:53:51;;;;;;;48.65;15.00;;;4.00;99.90;;;;;;5086625;28;20063;-90
2022/03/18 03:56:23;;;;;;;41.45;14.35;;;3.90;99.90;;;;;;5088108;28;20511;-90
2022/03/18 03:58:49;;;;;;;36.60;13.98;;;3.90;99.90;;;;;;5092231;28;20075;-90
2022/03/18 04:01:15;;;;;;;54.17;15.23;;;3.90;99.90;;;;;;5089167;28;20074;-90
2022/03/18 04:03:47;;;;;;;42.70;14.25;;;3.90;99.90;;;;;;5092281;28;20024;-90
2022/03/18 04:06:13;;;;;;;41.95;15.05;;;3.80;99.90;;;;;;5092069;28;20352;-91
2022/03/18 04:08:56;;;;;;;44.70;14.70;;;3.80;99.90;;;;;;5108299;28;20380;-91
2022/03/18 04:11:27;;;;;;;46.97;14.43;;;3.70;99.90;;;;;;5090018;28;20097;-91
2022/03/18 04:13:52;;;;;;;50.03;15.93;;;3.70;99.90;;;;;;5072020;28;20115;-91
2022/03/18 04:16:18;;;;;;;41.15;14.38;;;3.70;99.90;;;;;;5087743;28;20113;-91
2022/03/18 04:18:54;;;;;;;30.33;12.63;;;3.60;99.90;;;;;;5072340;28;20098;-90
2022/03/18 04:21:19;;;;;;;41.97;13.13;;;3.60;99.90;;;;;;5070870;28;20093;-90
2022/03/18 04:23:45;;;;;;;40.50;14.98;;;3.50;99.90;;;;;;5070597;28;20119;-90
2022/03/18 04:26:14;;;;;;;43.15;15.00;;;3.40;99.90;;;;;;5087502;28;20380;-90
2022/03/18 04:28:40;;;;;;;40.65;14.65;;;3.40;99.90;;;;;;5071447;28;20389;-91
2022/03/18 04:31:15;;;;;;;40.90;14.20;;;3.40;99.90;;;;;;5072012;28;20024;-90
2022/03/18 04:33:40;;;;;;;44.87;14.40;;;3.30;99.90;;;;;;5071673;28;20024;-91
2022/03/18 04:36:39;;;;;;;39.38;13.75;;;3.30;99.90;;;;;;5072001;28;20017;-91
2022/03/18 04:39:05;;;;;;;25.95;12.13;;;3.20;99.90;;;;;;5075898;28;20048;-91
2022/03/18 04:41:47;;;;;;;34.80;13.13;;;3.20;99.90;;;;;;5091164;28;20047;-91
2022/03/18 04:44:12;;;;;;;43.50;14.75;;;3.20;99.90;;;;;;5090650;28;20019;-91
2022/03/18 04:46:50;;;;;;;39.05;13.82;;;3.10;99.90;;;;;;5088673;28;20107;-92
2022/03/18 04:49:16;;;;;;;37.05;13.57;;;3.10;99.90;;;;;;5111596;28;20024;-91
2022/03/18 04:51:42;;;;;;;35.92;12.82;;;3.00;99.90;;;;;;5094600;28;20024;-92
2022/03/18 04:54:23;;;;;;;45.38;15.45;;;3.00;99.90;;;;;;5111354;28;20028;-92
2022/03/18 04:59:51;;;;;;;45.05;14.35;;;2.90;99.90;;;;;;5075252;28;20036;-91
2022/03/18 05:02:17;;;;;;;41.08;15.15;;;2.90;99.90;;;;;;5073853;28;20032;-91
2022/03/18 05:04:44;;;;;;;36.60;15.35;;;2.90;99.90;;;;;;5075325;28;20021;-91
2022/03/18 05:07:11;;;;;;;46.28;15.25;;;2.90;99.90;;;;;;5074093;28;20017;-91
2022/03/18 05:09:46;;;;;;;44.22;14.10;;;2.80;99.90;;;;;;5074382;28;20070;-92
2022/03/18 05:12:13;;;;;;;52.63;16.30;;;2.80;99.90;;;;;;5095477;28;20040;-92
2022/03/18 05:14:40;;;;;;;43.80;15.80;;;2.80;99.90;;;;;;5077253;28;20076;-91
2022/03/18 05:17:17;;;;;;;39.90;15.82;;;2.80;99.90;;;;;;5094818;28;20036;-91
2022/03/18 05:19:43;;;;;;;45.70;15.95;;;2.80;99.90;;;;;;5095131;28;20085;-90
2022/03/18 05:22:08;;;;;;;43.42;15.43;;;2.80;99.90;;;;;;5110882;28;20024;-91
2022/03/18 05:25:21;;;;;;;46.53;16.38;;;2.80;99.90;;;;;;5115527;28;20024;-91
2022/03/18 05:27:46;;;;;;;66.55;17.90;;;2.80;99.90;;;;;;5114219;28;20028;-90
2022/03/18 05:30:18;;;;;;;51.58;16.85;;;2.80;99.90;;;;;;5113948;28;20380;-89
2022/03/18 05:32:44;;;;;;;46.35;15.23;;;2.70;99.90;;;;;;5113904;28;20023;-91
2022/03/18 05:35:13;;;;;;;40.95;16.05;;;2.70;99.90;;;;;;5115277;28;20027;-91
2022/03/18 05:37:39;;;;;;;37.08;15.85;;;2.70;99.90;;;;;;5080151;28;20035;-91
2022/03/18 05:40:08;;;;;;;36.13;13.82;;;2.70;99.90;;;;;;5076650;28;20032;-90
2022/03/18 05:42:34;;;;;;;48.92;14.57;;;2.70;99.90;;;;;;5087077;28;20036;-90
2022/03/18 05:45:04;;;;;;;53.67;16.52;;;2.70;99.90;;;;;;5093417;28;20020;-91
2022/03/18 05:47:30;;;;;;;44.08;14.70;;;2.70;99.90;;;;;;5111445;28;20016;-90
2022/03/18 05:50:02;;;;;;;44.50;16.08;;;2.70;99.90;;;;;;5114786;28;20023;-91
2022/03/18 05:52:27;;;;;;;53.20;16.30;;;2.70;99.90;;;;;;5096565;28;20027;-91
2022/03/18 05:54:58;;;;;;;48.70;15.27;;;2.70;99.90;;;;;;5114792;28;20034;-91
2022/03/18 05:57:28;;;;;;;42.90;14.65;;;2.80;99.90;;;;;;5101486;28;20035;-91
2022/03/18 06:00:03;;;;;;;52.33;15.52;;;2.70;99.90;;;;;;5113169;28;20028;-91
2022/03/18 06:02:29;;;;;;;57.67;16.30;;;2.80;99.90;;;;;;5085800;28;20020;-91
2022/03/18 06:04:55;;;;;;;55.60;14.23;;;2.80;99.90;;;;;;5075876;28;20035;-91
2022/03/18 06:07:20;;;;;;;61.20;15.57;;;2.80;99.90;;;;;;5089937;28;20113;-91
2022/03/18 06:12:49;;;;;;;53.70;15.50;;;2.80;99.90;;;;;;5033848;28;20060;-91
2022/03/18 06:15:15;;;;;;;43.80;15.55;;;2.90;99.90;;;;;;5051306;28;20033;-91
2022/03/18 06:17:54;;;;;;;55.67;12.52;;;2.90;99.90;;;;;;5069400;28;20036;-92
2022/03/18 06:20:20;;;;;;;57.55;13.30;;;2.90;99.90;;;;;;5065788;28;20021;-91
2022/03/18 06:22:55;;;;;;;40.47;12.57;;;2.90;99.90;;;;;;5033593;28;20041;-91
2022/03/18 06:25:23;;;;;;;;;;;3.00;99.90;;;;;;5032880;28;20022;-92
2022/03/18 06:27:50;;;;;;;44.90;12.48;;;3.00;99.90;;;;;;5033699;28;19905;-92
2022/03/18 06:30:15;;;;;;;49.33;11.98;;;3.10;99.90;;;;;;5033264;28;20385;-91
2022/03/18 06:32:43;;;;;;;51.75;12.82;;;3.20;99.90;;;;;;5040674;28;20028;-92
2022/03/18 06:35:08;;;;;;;56.88;14.20;;;3.20;99.90;;;;;;5049375;28;20028;-91
2022/03/18 06:37:36;;;;;;;63.95;14.15;;;3.20;99.90;;;;;;5050184;28;20400;-92
2022/03/18 06:40:02;;;;;;;47.08;12.18;;;3.30;99.90;;;;;;5051540;28;20427;-91
2022/03/18 06:42:27;;;;;;;66.32;13.52;;;3.40;99.90;;;;;;5051652;28;20029;-90
2022/03/18 06:44:58;;;;;;;60.63;12.30;;;3.40;99.90;;;;;;5051527;28;20029;-91
2022/03/18 06:47:24;;;;;;;56.80;13.45;;;3.50;99.90;;;;;;5067003;28;20029;-91
2022/03/18 06:50:12;;;;;;;55.45;12.38;;;3.50;99.90;;;;;;5049195;28;20311;-91
2022/03/18 06:52:37;;;;;;;50.58;12.07;;;3.60;99.90;;;;;;5061941;28;20037;-91
2022/03/18 06:55:03;;;;;;;65.53;13.18;;;3.60;99.90;;;;;;5053869;28;20029;-91
2022/03/18 06:57:29;;;;;;;70.50;14.77;;;3.70;99.90;;;;;;5051596;28;20454;-92
2022/03/18 06:59:56;;;;;;;63.90;13.73;;;3.70;99.90;;;;;;5054144;28;20491;-91
2022/03/18 07:02:22;;;;;;;52.28;13.55;;;3.80;99.90;;;;;;5071589;28;20121;-92
2022/03/18 07:05:00;;;;;;;57.22;13.02;;;3.80;99.90;;;;;;5065915;28;20542;-91
2022/03/18 07:07:25;;;;;;;54.13;13.85;;;3.90;99.90;;;;;;5051670;28;20070;-92
2022/03/18 07:10:06;;;;;;;60.95;12.68;;;3.90;99.90;;;;;;5051583;28;20416;-92
2022/03/18 07:12:31;;;;;;;61.78;14.13;;;4.00;99.90;;;;;;5088250;28;20039;-92
2022/03/18 07:15:12;;;;;;;44.78;12.45;;;4.00;99.90;;;;;;5072879;28;20024;-91
2022/03/18 07:23:53;;;;;;;60.60;14.45;;;4.10;99.90;;;;;;5072876;28;20630;-93
2022/03/18 07:26:19;;;;;;;57.33;13.48;;;4.20;99.90;;;;;;5072061;28;20021;-93
2022/03/18 07:28:45;;;;;;;65.30;13.10;;;4.20;99.90;;;;;;5071602;28;20077;-92
2022/03/18 07:31:12;;;;;;;55.90;11.25;;;4.30;99.90;;;;;;5074309;28;20017;-94
2022/03/18 07:33:38;;;;;;;54.97;12.88;;;4.30;99.90;;;;;;5092024;28;20020;-92
2022/03/18 07:36:10;;;;;;;57.13;12.82;;;4.30;99.90;;;;;;5092289;28;20035;-93
2022/03/18 07:38:36;;;;;;;66.07;12.68;;;4.40;99.90;;;;;;5092321;28;20028;-94
2022/03/18 07:41:10;;;;;;;60.00;12.90;;;4.50;99.90;;;;;;5077706;28;20020;-94
2022/03/18 07:43:35;;;;;;;53.60;12.77;;;4.40;99.90;;;;;;5088761;28;20040;-93
2022/03/18 07:46:08;;;;;;;58.10;11.48;;;4.50;99.90;;;;;;5072837;28;20021;-93
2022/03/18 07:48:34;;;;;;;46.55;10.32;;;4.60;99.90;;;;;;5071808;28;20647;-94
2022/03/18 07:51:02;;;;;;;52.97;10.43;;;4.60;99.90;;;;;;5071833;28;20048;-93
2022/03/18 07:53:28;;;;;;;58.45;13.02;;;4.70;99.90;;;;;;5071755;28;20028;-93
2022/03/18 07:56:21;;;;;;;43.45;9.52;;;4.70;99.90;;;;;;5071792;28;20037;-93
2022/03/18 07:58:47;;;;;;;55.05;10.20;;;4.70;99.90;;;;;;5088412;28;20468;-94
2022/03/18 08:01:30;;;;;;;53.17;9.77;;;4.80;99.90;;;;;;5088664;28;20032;-92
2022/03/18 08:03:55;;;;;;;31.52;7.70;;;4.80;99.90;;;;;;5088146;28;20066;-93
2022/03/18 08:06:31;;;;;;;45.78;9.32;;;4.90;99.90;;;;;;5090829;28;20055;-93
2022/03/18 08:08:57;;;;;;;39.97;8.63;;;4.90;99.90;;;;;;5093436;28;20032;-93
2022/03/18 08:11:22;;;;;;;52.60;8.73;;;5.00;99.90;;;;;;5093205;28;20104;-93
2022/03/18 08:13:54;;;;;;;51.75;9.70;;;5.00;99.90;;;;;;5112623;28;20032;-93
2022/03/18 08:16:19;;;;;;;40.03;8.38;;;5.10;99.90;;;;;;5096867;28;20109;-93
2022/03/18 08:18:47;;;;;;;44.65;8.70;;;5.10;99.90;;;;;;5112223;28;20430;-93
2022/03/18 08:21:15;;;;;;;45.17;8.10;;;5.20;99.90;;;;;;5096964;28;20028;-93
2022/03/18 08:23:46;;;;;;;39.40;7.38;;;5.20;99.90;;;;;;5108768;28;20487;-92
2022/03/18 08:26:12;;;;;;;34.15;7.00;;;5.20;99.90;;;;;;5075142;28;20020;-93
2022/03/18 08:28:38;;;;;;;41.80;9.60;;;5.20;99.90;;;;;;5077326;28;20032;-93
2022/03/18 08:31:04;;;;;;;34.85;8.02;;;5.20;99.90;;;;;;5096662;28;20046;-93
2022/03/18 08:33:31;;;;;;;39.17;6.82;;;5.20;99.90;;;;;;5112101;28;20028;-93
2022/03/18 08:35:57;;;;;;;53.90;9.85;;;5.30;99.90;;;;;;5112742;28;20028;-93
2022/03/18 08:38:22;;;;;;;30.63;7.47;;;5.30;99.90;;;;;;5095727;28;20028;-93
2022/03/18 08:41:05;;;;;;;37.92;8.35;;;5.30;99.90;;;;;;5112719;28;20054;-93
2022/03/18 08:43:31;;;;;;;32.25;8.95;;;5.40;99.90;;;;;;5112178;28;20024;-93
2022/03/18 08:46:02;;;;;;;35.13;9.45;;;5.40;99.90;;;;;;5112393;28;20111;-94
2022/03/18 08:48:28;;;;;;;40.22;7.40;;;5.40;99.90;;;;;;5112144;28;20062;-92
2022/03/18 08:51:37;;;;;;;26.38;6.68;;;5.40;99.90;;;;;;5111547;28;20116;-91
2022/03/18 08:54:03;;;;;;;34.05;6.82;;;5.50;99.90;;;;;;5071350;28;20032;-93
2022/03/18 08:59:52;;;;;;;44.97;6.88;;;5.50;99.90;;;;;;5055766;28;20036;-93
2022/03/18 09:02:18;;;;;;;38.63;6.97;;;5.60;99.90;;;;;;5054533;28;20029;-94
2022/03/18 09:04:48;;;;;;;33.45;6.70;;;5.60;99.90;;;;;;5071510;28;20138;-91
2022/03/18 09:07:14;;;;;;;29.00;4.80;;;5.70;99.90;;;;;;5079868;28;20020;-93
2022/03/18 09:09:39;;;;;;;21.02;4.93;;;5.80;99.90;;;;;;5110290;28;20020;-94
2022/03/18 09:12:18;;;;;;;32.03;5.18;;;5.80;99.90;;;;;;5092734;28;20044;-94
2022/03/18 09:14:45;;;;;;;29.52;6.05;;;5.90;99.90;;;;;;5074493;28;20177;-94
2022/03/18 09:17:12;;;;;;;21.98;5.07;;;5.90;99.90;;;;;;5091548;28;20035;-94
2022/03/18 09:19:38;;;;;;;19.85;4.65;;;6.00;99.90;;;;;;5075992;28;20086;-94
2022/03/18 09:22:21;;;;;;;17.55;4.65;;;6.10;99.90;;;;;;5090626;28;20132;-93
2022/03/18 09:24:47;;;;;;;20.75;4.60;;;6.20;99.90;;;;;;5074362;28;20029;-94
2022/03/18 09:27:26;;;;;;;23.85;4.72;;;6.20;99.90;;;;;;5091343;28;20115;-94
2022/03/18 09:29:51;;;;;;;32.45;5.43;;;6.20;99.90;;;;;;5091165;28;20044;-94
2022/03/18 09:32:19;;;;;;;23.17;4.22;;;6.20;99.90;;;;;;5074495;28;20029;-93
2022/03/18 09:34:45;;;;;;;24.30;4.65;;;6.30;99.90;;;;;;5091232;28;20101;-94
2022/03/18 09:37:32;;;;;;;26.25;4.45;;;6.30;99.90;;;;;;5090869;28;20074;-93
2022/03/18 09:40:00;;;;;;;23.45;4.75;;;6.30;99.90;;;;;;5074100;28;20039;-93
2022/03/18 09:49:13;;;;;;;13.60;4.10;;;6.60;99.90;;;;;;5074973;28;20031;-94
2022/03/18 09:51:58;;;;;;;20.95;4.60;;;6.60;99.90;;;;;;5090297;28;20437;-94
2022/03/18 09:54:25;;;;;;;18.05;3.92;;;6.60;99.90;;;;;;5077705;28;20032;-93
2022/03/18 09:57:22;;;;;;;23.00;3.85;;;6.60;99.90;;;;;;5110609;28;20031;-92
2022/03/18 09:59:48;;;;;;;14.48;3.05;;;6.70;99.90;;;;;;5101997;28;20110;-94
2022/03/18 10:02:27;;;;;;;13.52;4.07;;;6.70;99.90;;;;;;5079236;28;20128;-94
2022/03/18 10:05:13;;;;;;;18.02;4.00;;;6.70;99.90;;;;;;5094962;28;20024;-94
2022/03/18 10:07:39;;;;;;;15.23;3.58;;;6.70;99.90;;;;;;5094682;28;20447;-94
2022/03/18 10:10:16;;;;;;;18.67;4.38;;;6.80;99.90;;;;;;5093413;28;20066;-94
2022/03/18 10:12:47;;;;;;;26.80;4.10;;;6.80;99.90;;;;;;5113531;28;20043;-93
2022/03/18 10:15:19;;;;;;;26.35;4.15;;;6.90;99.90;;;;;;5113223;28;20063;-94
2022/03/18 10:17:51;;;;;;;17.85;4.95;;;6.90;99.90;;;;;;5113868;28;20114;-92
2022/03/18 10:20:38;;;;;;;17.50;3.97;;;6.90;99.90;;;;;;5113674;28;20059;-94
2022/03/18 10:23:15;;;;;;;24.83;5.18;;;7.00;99.90;;;;;;5113677;28;20028;-94
2022/03/18 10:25:57;;;;;;;12.82;4.07;;;7.10;99.90;;;;;;5096254;28;20055;-92
2022/03/18 10:28:36;;;;;;;13.70;3.65;;;7.10;99.90;;;;;;5096021;28;20026;-92
2022/03/18 10:38:31;;;;;;;8.88;2.58;;;7.40;99.90;;;;;;5051517;28;20021;-91
2022/03/18 10:40:59;;;;;;;12.88;3.92;;;7.50;99.90;;;;;;5114085;28;20022;-90
2022/03/18 10:43:53;;;;;;;21.38;3.20;;;7.50;99.90;;;;;;5112570;28;20023;-91
2022/03/18 10:46:19;;;;;;;18.50;3.42;;;7.60;99.90;;;;;;5095804;28;20015;-91
2022/03/18 10:49:28;;;;;;;13.75;3.22;;;7.60;99.90;;;;;;5112859;28;20028;-91
2022/03/18 10:51:54;;;;;;;21.33;3.22;;;7.70;99.90;;;;;;5095563;28;20030;-90
2022/03/18 10:54:30;;;;;;;16.60;3.33;;;7.80;99.90;;;;;;5103666;28;20028;-90
2022/03/18 10:56:57;;;;;;;12.13;2.70;;;7.80;99.90;;;;;;5093267;28;20592;-91
2022/03/18 10:59:24;;;;;;;12.73;3.95;;;7.80;99.90;;;;;;5101621;28;20425;-92
2022/03/18 11:02:05;;;;;;;11.25;2.47;;;7.90;99.90;;;;;;5084260;28;20085;-90
2022/03/18 11:04:32;;;;;;;16.70;3.80;;;7.90;99.90;;;;;;5093494;28;20050;-91
2022/03/18 11:07:41;;;;;;;13.80;2.85;;;8.00;99.90;;;;;;5093242;28;20095;-90
2022/03/18 11:12:55;;;;;;;13.27;3.03;;;8.00;99.90;;;;;;5089988;28;20078;-90
2022/03/18 11:16:03;;;;;;;11.57;2.42;;;8.00;99.90;;;;;;5092057;28;20028;-90
2022/03/18 11:18:31;;;;;;;11.38;2.72;;;8.10;99.90;;;;;;5075144;28;20464;-91
2022/03/18 11:21:00;;;;;;;11.35;2.97;;;8.20;99.90;;;;;;5093016;28;20032;-91
2022/03/18 11:23:26;;;;;;;9.60;2.63;;;8.20;99.90;;;;;;5091560;28;20059;-90
2022/03/18 11:25:57;;;;;;;23.38;4.18;;;8.20;99.90;;;;;;5090274;28;20024;-90
2022/03/18 11:28:22;;;;;;;16.77;2.90;;;8.20;99.90;;;;;;5092642;28;20024;-91
2022/03/18 11:31:09;;;;;;;15.75;3.38;;;8.30;99.90;;;;;;5092855;28;20099;-90
2022/03/18 11:33:35;;;;;;;;;;;8.30;99.90;;;;;;5092915;28;20059;-90
2022/03/18 11:36:34;;;;;;;;;;;8.30;99.90;;;;;;5075275;28;19907;-90
2022/03/18 11:39:03;;;;;;;13.98;3.75;;;8.30;99.90;;;;;;5092843;28;19948;-91
2022/03/18 11:42:10;;;;;;;12.63;3.67;;;8.30;99.90;;;;;;5092628;28;20430;-90
2022/03/18 11:44:44;;;;;;;15.98;3.92;;;8.30;99.90;;;;;;5092633;28;20020;-90
2022/03/18 11:47:33;;;;;;;18.48;4.25;;;8.40;99.90;;;;;;5095849;28;20437;-91
2022/03/18 11:49:59;;;;;;;22.13;4.93;;;8.40;99.90;;;;;;5096885;28;20077;-90
2022/03/18 11:52:25;;;;;;;22.83;3.88;;;8.50;99.90;;;;;;5096612;28;20090;-90
2022/03/18 11:54:55;;;;;;;15.73;4.18;;;8.50;99.90;;;;;;5099839;28;20030;-89
2022/03/18 11:57:31;;;;;;;15.48;3.97;;;8.60;99.90;;;;;;5088535;28;20436;-89
2022/03/18 12:00:00;;;;;;;;;;;8.70;99.90;;;;;;5096752;28;20035;-90
2022/03/18 12:02:37;;;;;;;8.70;2.83;;;8.70;99.90;;;;;;5099587;28;19931;-90
2022/03/18 12:05:06;;;;;;;12.07;3.47;;;8.70;99.90;;;;;;5096389;28;20028;-90
2022/03/18 12:07:54;;;;;;;15.13;3.55;;;8.80;99.90;;;;;;5112004;28;20015;-90
2022/03/18 12:10:34;;;;;;;14.35;3.25;;;8.80;99.90;;;;;;5115611;28;20475;-90
2022/03/18 12:13:03;;;;;;;19.83;4.07;;;8.90;99.90;;;;;;5115686;28;20043;-89
2022/03/18 12:15:29;;;;;;;11.75;3.08;;;9.00;99.90;;;;;;5116780;28;20475;-90
2022/03/18 12:17:57;;;;;;;12.98;2.97;;;9.00;99.90;;;;;;5115785;28;20026;-90
2022/03/18 12:20:37;;;;;;;10.55;2.80;;;9.20;99.90;;;;;;5116573;28;20411;-90
2022/03/18 12:23:05;;;;;;;13.45;3.33;;;9.30;99.90;;;;;;5116767;28;20028;-91
2022/03/18 12:25:31;;;;;;;8.45;2.60;;;9.40;99.90;;;;;;5115783;28;20420;-92
2022/03/18 12:28:02;;;;;;;15.77;3.60;;;9.50;99.90;;;;;;5115339;28;20029;-92
2022/03/18 12:30:34;;;;;;;13.95;2.63;;;9.60;99.90;;;;;;5115416;28;20416;-92
2022/03/18 12:33:04;;;;;;;15.20;2.50;;;9.60;99.90;;;;;;5116995;28;20023;-91
2022/03/18 12:36:02;;;;;;;13.43;3.22;;;9.60;99.90;;;;;;5115334;28;20084;-91
2022/03/18 12:38:31;;;;;;;15.40;3.03;;;9.70;99.90;;;;;;5116658;28;20027;-91
2022/03/18 12:41:12;;;;;;;17.58;4.07;;;9.90;99.90;;;;;;5116430;28;20413;-91
2022/03/18 12:43:37;;;;;;;11.27;2.65;;;9.90;99.90;;;;;;5114669;28;20031;-90
2022/03/18 12:46:04;;;;;;;11.88;2.58;;;10.10;99.90;;;;;;5098075;28;20015;-91
2022/03/18 12:48:30;;;;;;;15.57;2.70;;;10.10;99.90;;;;;;5116225;28;20019;-90
2022/03/18 12:51:07;;;;;;;9.55;2.55;;;10.20;99.90;;;;;;5116332;28;20046;-91
2022/03/18 12:53:34;;;;;;;8.73;2.42;;;10.20;99.90;;;;;;5116133;28;20019;-90
2022/03/18 12:56:02;;;;;;;13.68;2.35;;;10.20;99.90;;;;;;5116334;28;20020;-92
2022/03/18 12:58:41;;;;;;;6.13;1.67;;;10.30;99.90;;;;;;5114766;28;20043;-91
2022/03/18 13:01:11;;;;;;;6.97;2.08;;;10.20;99.90;;;;;;5114902;28;20024;-91
2022/03/18 13:03:47;;;;;;;9.02;2.58;;;10.40;99.90;;;;;;5114888;28;20028;-91
2022/03/18 13:06:18;;;;;;;7.18;2.08;;;10.60;99.90;;;;;;5116095;28;20026;-91
2022/03/18 13:12:28;;;;;;;13.48;3.05;;;10.60;99.90;;;;;;5114838;28;20039;-91
2022/03/18 13:14:54;;;;;;;9.63;2.53;;;10.70;99.90;;;;;;5115015;28;20020;-90
2022/03/18 13:17:32;;;;;;;9.88;2.90;;;10.80;99.90;;;;;;5114673;28;20016;-92
2022/03/18 13:19:58;;;;;;;6.63;2.05;;;10.80;99.90;;;;;;5115011;28;20027;-92
2022/03/18 13:22:43;;;;;;;14.38;2.88;;;10.90;99.90;;;;;;5097687;28;20035;-92
2022/03/18 13:25:09;;;;;;;10.52;1.90;;;11.00;99.90;;;;;;5114865;28;20024;-93
2022/03/18 13:27:52;;;;;;;11.73;2.90;;;11.00;99.90;;;;;;5115692;28;20024;-91
2022/03/18 13:33:09;;;;;;;11.77;2.42;;;11.00;99.90;;;;;;5099729;28;20376;-91
2022/03/18 13:35:49;;;;;;;7.53;2.00;;;11.20;99.90;;;;;;5077443;28;20106;-91
2022/03/18 13:38:23;;;;;;;5.78;1.83;;;11.30;99.90;;;;;;5057317;28;20021;-92
2022/03/18 13:41:17;;;;;;;8.23;1.60;;;11.50;99.90;;;;;;5073856;28;20037;-91
2022/03/18 13:43:46;;;;;;;6.82;1.95;;;11.50;99.80;;;;;;5106715;28;20034;-93
2022/03/18 13:46:17;;;;;;;8.93;2.25;;;11.50;96.80;;;;;;5115489;28;20099;-92
2022/03/18 13:49:25;;;;;;;5.45;1.63;;;11.50;98.50;;;;;;5115598;28;20015;-92
2022/03/18 13:52:48;;;;;;;7.35;2.00;;;11.60;98.00;;;;;;5097429;28;20391;-92
2022/03/18 13:55:32;;;;;;;8.32;2.30;;;11.60;98.30;;;;;;5114225;28;20143;-92
2022/03/18 13:58:06;;;;;;;9.75;2.22;;;11.70;97.00;;;;;;5098204;28;20107;-92
2022/03/18 14:00:34;;;;;;;7.80;2.35;;;11.80;94.90;;;;;;5094937;28;20044;-92